createdAt,value
2023-01-08T00:01:13.000Z,98509.38
2023-01-08T00:03:59.560Z,98499.16
2023-01-08T00:06:46.203Z,98481.06
2023-01-08T00:09:32.626Z,98498.34
2023-01-08T00:12:19.483Z,98488.13
2023-01-08T00:15:06.626Z,98486.34
2023-01-08T00:17:52.889Z,98499.22
2023-01-08T00:20:46.644Z,98502.69
2023-01-08T00:23:34.089Z,98495.84
2023-01-08T00:26:20.683Z,98489.03
2023-01-08T00:29:09.062Z,98474.41
2023-01-08T00:31:55.410Z,98462.44
2023-01-08T00:34:41.780Z,98456.38
2023-01-08T00:37:29.017Z,98446.94
2023-01-08T00:40:15.410Z,98448.59
2023-01-08T00:43:01.739Z,98437.41
2023-01-08T00:45:48.468Z,98430.53
2023-01-08T00:48:39.004Z,98441.56
2023-01-08T00:51:26.320Z,98449.19
2023-01-08T00:54:12.611Z,98446.63
2023-01-08T00:56:59.131Z,98438.09
2023-01-08T00:59:46.075Z,98432.16
2023-01-08T01:02:34.420Z,98429.69
2023-01-08T01:05:24.767Z,98431.34
2023-01-08T01:08:11.377Z,98437.25
2023-01-08T01:10:57.781Z,98432.91
2023-01-08T01:13:44.328Z,98435.44
2023-01-08T01:16:30.862Z,98429.44
2023-01-08T01:19:18.172Z,98412.28
2023-01-08T01:22:05.139Z,98431.06
2023-01-08T01:24:51.846Z,98422.38
2023-01-08T01:27:38.528Z,98402.69
2023-01-08T01:30:25.265Z,98414.00
2023-01-08T01:33:11.960Z,98402.75
2023-01-08T01:36:03.055Z,98407.81
2023-01-08T01:38:51.685Z,98425.75
2023-01-08T01:41:46.599Z,98431.75
2023-01-08T01:44:42.079Z,98421.56
2023-01-08T01:47:34.586Z,98427.53
2023-01-08T01:50:35.656Z,98424.13
2023-01-08T01:53:27.168Z,98419.84
2023-01-08T01:56:13.714Z,98420.94
2023-01-08T01:59:00.674Z,98416.69
2023-01-08T02:01:47.514Z,98408.19
2023-01-08T02:04:34.296Z,98408.97
2023-01-08T02:07:36.335Z,98405.56
2023-01-08T02:10:33.509Z,98414.16
2023-01-08T02:13:31.665Z,98414.13
2023-01-08T02:16:55.099Z,98408.16
2023-01-08T02:20:00.021Z,98408.13
2023-01-08T02:23:06.154Z,98392.81
2023-01-08T02:26:16.937Z,98393.66
2023-01-08T02:29:03.462Z,98382.53
2023-01-08T02:31:50.001Z,98385.91
2023-01-08T02:34:36.433Z,98374.81
2023-01-08T02:37:23.504Z,98367.06
2023-01-08T02:40:42.003Z,98376.47
2023-01-08T02:43:41.051Z,98370.53
2023-01-08T02:46:34.287Z,98365.44
2023-01-08T02:49:24.430Z,98350.03
2023-01-08T02:52:13.610Z,98345.78
2023-01-08T02:55:03.001Z,98349.22
2023-01-08T02:57:50.589Z,98344.06
2023-01-08T03:00:37.694Z,98340.63
2023-01-08T03:03:27.239Z,98338.94
2023-01-08T03:06:16.895Z,98332.91
2023-01-08T03:09:03.812Z,98314.03
2023-01-08T03:11:54.267Z,98319.13
2023-01-08T03:14:54.431Z,98325.13
2023-01-08T03:17:46.564Z,98313.13
2023-01-08T03:20:35.886Z,98309.69
2023-01-08T03:23:23.247Z,98306.28
2023-01-08T03:26:11.029Z,98303.69
2023-01-08T03:28:57.951Z,98308.88
2023-01-08T03:31:46.630Z,98302.00
2023-01-08T03:34:37.704Z,98307.16
2023-01-08T03:37:32.900Z,98301.16
2023-01-08T03:40:35.300Z,98296.00
2023-01-08T03:43:21.668Z,98294.31
2023-01-08T03:46:15.949Z,98286.59
2023-01-08T03:49:05.389Z,98292.56
2023-01-08T03:51:52.183Z,98280.59
2023-01-08T03:54:38.739Z,98295.19
2023-01-08T03:57:25.685Z,98287.44
2023-01-08T04:00:13.080Z,98280.59
2023-01-08T04:02:59.440Z,98268.56
2023-01-08T04:05:45.857Z,98276.28
2023-01-08T04:08:32.797Z,98274.56
2023-01-08T04:11:19.994Z,98286.56
2023-01-08T04:14:06.480Z,98280.56
2023-01-08T04:16:53.052Z,98272.00
2023-01-08T04:19:39.435Z,98269.41
2023-01-08T04:22:26.143Z,98265.09
2023-01-08T04:25:12.648Z,98260.00
2023-01-08T04:27:58.905Z,98263.41
2023-01-08T04:30:45.496Z,98278.84
2023-01-08T04:33:32.171Z,98271.09
2023-01-08T04:36:18.793Z,98271.09
2023-01-08T04:39:05.557Z,98285.66
2023-01-08T04:41:51.827Z,98281.31
2023-01-08T04:44:38.076Z,98271.84
2023-01-08T04:47:24.368Z,98282.97
2023-01-08T04:50:11.348Z,98287.31
2023-01-08T04:52:59.283Z,98278.66
2023-01-08T04:55:45.678Z,98284.59
2023-01-08T04:58:34.062Z,98295.78
2023-01-08T05:01:23.336Z,98287.09
2023-01-08T05:04:11.013Z,98275.97
2023-01-08T05:06:57.705Z,98288.00
2023-01-08T05:09:44.079Z,98288.84
2023-01-08T05:12:30.547Z,98293.19
2023-01-08T05:15:21.931Z,98290.69
2023-01-08T05:18:10.134Z,98303.53
2023-01-08T05:21:01.313Z,98305.25
2023-01-08T05:23:48.064Z,98305.22
2023-01-08T05:26:34.533Z,98296.63
2023-01-08T05:29:21.019Z,98301.84
2023-01-08T05:32:15.619Z,98289.84
2023-01-08T05:35:02.567Z,98300.16
2023-01-08T05:37:49.074Z,98291.56
2023-01-08T05:40:35.881Z,98301.94
2023-01-08T05:43:22.330Z,98297.66
2023-01-08T05:46:08.943Z,98301.97
2023-01-08T05:48:55.500Z,98303.69
2023-01-08T05:51:42.017Z,98298.53
2023-01-08T05:54:28.378Z,98295.13
2023-01-08T05:57:14.911Z,98283.94
2023-01-08T06:00:01.278Z,98300.22
2023-01-08T06:02:58.184Z,98296.75
2023-01-08T06:05:44.883Z,98306.25
2023-01-08T06:08:31.990Z,98279.53
2023-01-08T06:11:18.300Z,98287.16
2023-01-08T06:14:04.527Z,98277.69
2023-01-08T06:16:51.465Z,98276.00
2023-01-08T06:19:39.368Z,98278.50
2023-01-08T06:22:26.573Z,98262.09
2023-01-08T06:25:13.276Z,98265.47
2023-01-08T06:27:59.478Z,98266.34
2023-01-08T06:30:45.873Z,98254.31
2023-01-08T06:33:32.517Z,98260.31
2023-01-08T06:36:19.233Z,98257.72
2023-01-08T06:39:07.495Z,98250.00
2023-01-08T06:41:53.902Z,98259.47
2023-01-08T06:44:40.408Z,98258.63
2023-01-08T06:47:28.653Z,98255.09
2023-01-08T06:50:14.989Z,98252.53
2023-01-08T06:53:01.726Z,98259.38
2023-01-08T06:55:48.539Z,98267.16
2023-01-08T06:58:35.351Z,98273.94
2023-01-08T07:01:23.033Z,98269.69
2023-01-08T07:04:09.811Z,98249.97
2023-01-08T07:06:56.619Z,98257.72
2023-01-08T07:09:43.323Z,98250.78
2023-01-08T07:12:29.561Z,98250.00
2023-01-08T07:15:19.339Z,98263.72
2023-01-08T07:18:09.633Z,98262.88
2023-01-08T07:20:56.266Z,98256.84
2023-01-08T07:23:42.810Z,98267.88
2023-01-08T07:26:29.542Z,98260.13
2023-01-08T07:29:16.069Z,98271.28
2023-01-08T07:32:03.104Z,98263.66
2023-01-08T07:34:49.335Z,98264.59
2023-01-08T07:37:40.009Z,98265.44
2023-01-08T07:40:26.468Z,98272.28
2023-01-08T07:43:13.310Z,98270.56
2023-01-08T07:46:02.770Z,98266.28
2023-01-08T07:48:49.516Z,98274.06
2023-01-08T07:51:35.987Z,98262.84
2023-01-08T07:54:22.613Z,98271.28
2023-01-08T07:57:09.400Z,98266.03
2023-01-08T07:59:55.939Z,98275.50
2023-01-08T08:02:42.545Z,98263.47
2023-01-08T08:05:29.216Z,98262.69
2023-01-08T08:08:15.726Z,98257.59
2023-01-08T08:11:02.363Z,98270.38
2023-01-08T08:13:52.608Z,98264.38
2023-01-08T08:16:39.894Z,98251.50
2023-01-08T08:19:27.147Z,98249.81
2023-01-08T08:22:14.327Z,98255.75
2023-01-08T08:25:00.768Z,98265.25
2023-01-08T08:27:47.342Z,98250.72
2023-01-08T08:30:35.157Z,98240.34
2023-01-08T08:33:21.793Z,98254.06
2023-01-08T08:36:09.062Z,98252.31
2023-01-08T08:38:55.864Z,98234.34
2023-01-08T08:41:42.578Z,98247.13
2023-01-08T08:44:29.012Z,98248.09
2023-01-08T08:47:15.661Z,98236.00
2023-01-08T08:50:02.705Z,98248.88
2023-01-08T08:52:49.374Z,98240.13
2023-01-08T08:55:36.360Z,98229.81
2023-01-08T08:58:22.917Z,98233.28
2023-01-08T09:01:09.448Z,98236.66
2023-01-08T09:03:56.191Z,98233.19
2023-01-08T09:06:43.167Z,98237.47
2023-01-08T09:09:29.874Z,98237.41
2023-01-08T09:12:16.782Z,98238.34
2023-01-08T09:15:04.245Z,98221.09
2023-01-08T09:17:55.599Z,98234.75
2023-01-08T09:20:41.822Z,98234.75
2023-01-08T09:23:28.198Z,98229.56
2023-01-08T09:26:14.870Z,98232.13
2023-01-08T09:29:01.590Z,98234.78
2023-01-08T09:31:48.252Z,98226.22
2023-01-08T09:34:36.319Z,98232.16
2023-01-08T09:37:23.354Z,98230.38
2023-01-08T09:40:16.016Z,98235.56
2023-01-08T09:43:06.058Z,98240.53
2023-01-08T09:45:58.294Z,98240.63
2023-01-08T09:49:12.699Z,98246.63
2023-01-08T09:51:59.512Z,98233.69
2023-01-08T09:54:45.988Z,98225.97
2023-01-08T09:57:33.767Z,98234.53
2023-01-08T10:00:32.401Z,98240.56
2023-01-08T10:03:19.179Z,98236.13
2023-01-08T10:06:13.917Z,98233.56
2023-01-08T10:09:00.757Z,98247.28
2023-01-08T10:11:48.975Z,98236.13
2023-01-08T10:14:38.056Z,98242.06
2023-01-08T10:17:27.573Z,98242.06
2023-01-08T10:20:17.823Z,98244.66
2023-01-08T10:23:12.336Z,98230.91
2023-01-08T10:26:01.019Z,98221.38
2023-01-08T10:28:47.612Z,98230.81
2023-01-08T10:31:40.051Z,98232.59
2023-01-08T10:34:51.043Z,98223.00
2023-01-08T10:37:42.996Z,98224.81
2023-01-08T10:40:47.150Z,98213.69
2023-01-08T10:43:55.471Z,98212.66
2023-01-08T10:46:45.251Z,98207.44
2023-01-08T10:49:39.348Z,98211.78
2023-01-08T10:52:34.352Z,98209.94
2023-01-08T10:55:39.679Z,98213.34
2023-01-08T10:58:29.313Z,98222.75
2023-01-08T11:01:19.092Z,98209.72
2023-01-08T11:04:08.035Z,98201.31
2023-01-08T11:07:01.979Z,98197.59
2023-01-08T11:09:52.273Z,98190.72
2023-01-08T11:12:41.131Z,98189.75
2023-01-08T11:15:37.903Z,98183.66
2023-01-08T11:18:28.280Z,98176.06
2023-01-08T11:21:24.827Z,98170.88
2023-01-08T11:24:20.546Z,98172.53
2023-01-08T11:27:15.936Z,98153.41
2023-01-08T11:30:26.495Z,98155.91
2023-01-08T11:33:20.003Z,98152.19
2023-01-08T11:36:47.031Z,98143.53
2023-01-08T11:39:35.153Z,98146.09
2023-01-08T11:42:34.348Z,98140.72
2023-01-08T11:45:32.474Z,98127.84
2023-01-08T11:48:37.851Z,98126.94
2023-01-08T11:51:46.833Z,98122.66
2023-01-08T11:55:04.966Z,98112.25
2023-01-08T11:58:24.372Z,98116.69
2023-01-08T12:01:15.151Z,98108.06
2023-01-08T12:04:19.604Z,98096.31
2023-01-08T12:07:21.975Z,98088.13
2023-01-08T12:10:23.719Z,98084.50
2023-01-08T12:13:19.539Z,98069.13
2023-01-08T12:16:19.386Z,98056.84
2023-01-08T12:19:29.139Z,98040.41
2023-01-08T12:22:34.176Z,98061.84
2023-01-08T12:25:34.063Z,98070.47
2023-01-08T12:28:35.708Z,98052.41
2023-01-08T12:31:34.287Z,98059.38
2023-01-08T12:34:37.091Z,98061.19
2023-01-08T12:37:28.096Z,98050.03
2023-01-08T12:40:20.320Z,98056.78
2023-01-08T12:43:14.269Z,98053.34
2023-01-08T12:46:02.510Z,98063.81
2023-01-08T12:48:52.048Z,98071.69
2023-01-08T12:51:38.593Z,98067.47
2023-01-08T12:54:40.039Z,98057.31
2023-01-08T12:57:40.313Z,98047.97
2023-01-08T13:00:39.191Z,98057.47
2023-01-08T13:03:28.348Z,98043.03
2023-01-08T13:06:18.376Z,98031.88
2023-01-08T13:09:05.066Z,98034.47
2023-01-08T13:11:54.055Z,98040.50
2023-01-08T13:14:48.258Z,98026.59
2023-01-08T13:17:37.370Z,98024.75
2023-01-08T13:20:32.063Z,98009.91
2023-01-08T13:23:25.678Z,98019.75
2023-01-08T13:26:35.614Z,98024.53
2023-01-08T13:29:39.244Z,98020.06
2023-01-08T13:32:34.882Z,98025.13
2023-01-08T13:35:26.952Z,98007.03
2023-01-08T13:38:17.025Z,97991.31
2023-01-08T13:41:03.271Z,97984.75
2023-01-08T13:44:11.939Z,97990.63
2023-01-08T13:47:01.396Z,97992.59
2023-01-08T13:49:53.048Z,97982.66
2023-01-08T13:52:47.210Z,97977.97
2023-01-08T13:55:39.327Z,97984.66
2023-01-08T13:58:36.073Z,97975.72
2023-01-08T14:01:23.544Z,97987.09
2023-01-08T14:04:20.558Z,97982.84
2023-01-08T14:07:14.707Z,97965.59
2023-01-08T14:10:12.148Z,97964.44
2023-01-08T14:13:08.728Z,97959.81
2023-01-08T14:16:03.121Z,97947.22
2023-01-08T14:18:50.379Z,97957.56
2023-01-08T14:21:37.940Z,97954.97
2023-01-08T14:24:26.125Z,97951.53
2023-01-08T14:27:27.492Z,97948.22
2023-01-08T14:30:16.914Z,97944.72
2023-01-08T14:33:04.209Z,97943.88
2023-01-08T14:35:51.825Z,97941.34
2023-01-08T14:38:39.317Z,97940.41
2023-01-08T14:41:58.323Z,97950.09
2023-01-08T14:44:46.107Z,97957.19
2023-01-08T14:48:00.425Z,97949.34
2023-01-08T14:51:00.814Z,97944.97
2023-01-08T14:53:53.644Z,97937.34
2023-01-08T14:56:40.274Z,97933.91
2023-01-08T14:59:30.052Z,97931.56
2023-01-08T15:02:46.264Z,97922.28
2023-01-08T15:06:01.413Z,97922.66
2023-01-08T15:08:47.973Z,97925.34
2023-01-08T15:11:49.268Z,97921.19
2023-01-08T15:14:36.928Z,97912.88
2023-01-08T15:17:28.552Z,97917.28
2023-01-08T15:20:20.433Z,97919.16
2023-01-08T15:23:07.000Z,97908.81
2023-01-08T15:25:55.670Z,97896.03
2023-01-08T15:28:51.186Z,97900.25
2023-01-08T15:31:40.925Z,97893.59
2023-01-08T15:34:27.578Z,97899.75
2023-01-08T15:37:15.435Z,97882.69
2023-01-08T15:40:02.226Z,97873.66
2023-01-08T15:43:07.214Z,97890.78
2023-01-08T15:45:53.699Z,97886.63
2023-01-08T15:48:40.107Z,97891.03
2023-01-08T15:51:29.868Z,97890.03
2023-01-08T15:54:17.036Z,97886.53
2023-01-08T15:57:03.695Z,97878.69
2023-01-08T15:59:50.384Z,97883.13
2023-01-08T16:02:47.448Z,97878.91
2023-01-08T16:05:35.795Z,97865.94
2023-01-08T16:08:22.713Z,97868.69
2023-01-08T16:11:09.210Z,97870.56
2023-01-08T16:13:55.671Z,97874.09
2023-01-08T16:16:42.281Z,97862.88
2023-01-08T16:19:30.275Z,97861.09
2023-01-08T16:22:17.009Z,97851.56
2023-01-08T16:25:05.034Z,97847.38
2023-01-08T16:27:51.773Z,97844.66
2023-01-08T16:30:39.284Z,97833.66
2023-01-08T16:33:25.841Z,97829.34
2023-01-08T16:36:12.541Z,97828.41
2023-01-08T16:38:59.068Z,97823.28
2023-01-08T16:41:47.605Z,97821.81
2023-01-08T16:44:36.391Z,97823.44
2023-01-08T16:47:22.964Z,97808.69
2023-01-08T16:50:11.552Z,97816.38
2023-01-08T16:52:57.985Z,97809.53
2023-01-08T16:55:44.776Z,97807.03
2023-01-08T16:58:32.063Z,97804.50
2023-01-08T17:01:18.754Z,97812.06
2023-01-08T17:04:05.704Z,97815.66
2023-01-08T17:06:52.342Z,97811.34
2023-01-08T17:09:39.194Z,97801.88
2023-01-08T17:12:25.720Z,97785.84
2023-01-08T17:15:12.161Z,97781.16
2023-01-08T17:17:58.899Z,97774.41
2023-01-08T17:20:52.498Z,97760.69
2023-01-08T17:23:39.531Z,97757.41
2023-01-08T17:26:26.176Z,97754.06
2023-01-08T17:29:12.718Z,97745.66
2023-01-08T17:31:59.283Z,97739.88
2023-01-08T17:34:45.648Z,97731.47
2023-01-08T17:37:33.502Z,97724.63
2023-01-08T17:40:19.964Z,97727.41
2023-01-08T17:43:07.978Z,97725.72
2023-01-08T17:45:56.401Z,97735.38
2023-01-08T17:48:45.044Z,97733.03
2023-01-08T17:51:33.338Z,97735.59
2023-01-08T17:54:20.115Z,97734.38
2023-01-08T17:57:06.759Z,97727.44
2023-01-08T17:59:53.243Z,97724.63
2023-01-08T18:02:39.957Z,97718.56
2023-01-08T18:05:26.756Z,97719.50
2023-01-08T18:08:13.347Z,97708.09
2023-01-08T18:11:06.691Z,97700.34
2023-01-08T18:13:58.371Z,97709.94
2023-01-08T18:16:45.567Z,97704.53
2023-01-08T18:19:32.136Z,97701.06
2023-01-08T18:22:20.422Z,97703.59
2023-01-08T18:25:07.376Z,97711.34
2023-01-08T18:27:54.191Z,97705.22
2023-01-08T18:30:42.800Z,97693.28
2023-01-08T18:33:29.324Z,97688.06
2023-01-08T18:36:15.939Z,97687.94
2023-01-08T18:39:03.313Z,97678.78
2023-01-08T18:42:08.588Z,97683.84
2023-01-08T18:44:57.504Z,97680.50
2023-01-08T18:47:44.066Z,97678.78
2023-01-08T18:50:30.876Z,97666.81
2023-01-08T18:53:17.063Z,97671.22
2023-01-08T18:56:04.020Z,97652.41
2023-01-08T18:58:53.629Z,97655.88
2023-01-08T19:01:40.115Z,97653.06
2023-01-08T19:04:26.966Z,97646.44
2023-01-08T19:07:13.912Z,97650.72
2023-01-08T19:10:01.717Z,97643.03
2023-01-08T19:12:51.250Z,97644.81
2023-01-08T19:15:39.157Z,97644.81
2023-01-08T19:18:38.375Z,97604.47
2023-01-08T19:21:25.041Z,97628.97
2023-01-08T19:24:12.719Z,97624.81
2023-01-08T19:26:59.343Z,97628.34
2023-01-08T19:29:47.004Z,97616.34
2023-01-08T19:32:33.404Z,97605.97
2023-01-08T19:35:25.489Z,97595.69
2023-01-08T19:38:12.013Z,97590.16
2023-01-08T19:41:00.293Z,97586.59
2023-01-08T19:43:47.061Z,97582.34
2023-01-08T19:46:33.887Z,97580.63
2023-01-08T19:49:20.379Z,97577.97
2023-01-08T19:52:06.545Z,97578.84
2023-01-08T19:54:55.186Z,97583.13
2023-01-08T19:57:41.529Z,97572.78
2023-01-08T20:00:28.111Z,97576.25
2023-01-08T20:03:17.439Z,97575.34
2023-01-08T20:06:12.478Z,97565.84
2023-01-08T20:09:00.167Z,97561.00
2023-01-08T20:11:46.644Z,97565.25
2023-01-08T20:14:34.306Z,97558.47
2023-01-08T20:17:25.204Z,97560.34
2023-01-08T20:20:12.275Z,97557.75
2023-01-08T20:22:58.710Z,97545.75
2023-01-08T20:25:46.140Z,97555.41
2023-01-08T20:28:38.264Z,97557.31
2023-01-08T20:31:29.516Z,97566.72
2023-01-08T20:34:16.375Z,97559.94
2023-01-08T20:37:06.308Z,97550.69
2023-01-08T20:39:53.062Z,97545.41
2023-01-08T20:42:45.709Z,97544.88
2023-01-08T20:45:32.239Z,97544.00
2023-01-08T20:48:19.198Z,97546.81
2023-01-08T20:51:06.054Z,97538.94
2023-01-08T20:53:52.436Z,97537.25
2023-01-08T20:56:39.237Z,97529.75
2023-01-08T20:59:26.810Z,97534.72
2023-01-08T21:02:13.285Z,97529.66
2023-01-08T21:05:02.697Z,97510.88
2023-01-08T21:07:49.134Z,97517.72
2023-01-08T21:10:35.953Z,97514.41
2023-01-08T21:13:22.459Z,97509.38
2023-01-08T21:16:12.518Z,97511.97
2023-01-08T21:18:59.454Z,97504.28
2023-01-08T21:21:46.113Z,97496.38
2023-01-08T21:24:32.764Z,97491.47
2023-01-08T21:27:19.071Z,97474.19
2023-01-08T21:30:06.006Z,97485.44
2023-01-08T21:32:52.820Z,97480.50
2023-01-08T21:35:39.461Z,97475.47
2023-01-08T21:38:26.127Z,97464.97
2023-01-08T21:41:35.894Z,97451.16
2023-01-08T21:44:43.491Z,97455.56
2023-01-08T21:47:30.171Z,97444.38
2023-01-08T21:50:16.872Z,97440.16
2023-01-08T21:53:21.950Z,97438.25
2023-01-08T21:56:08.554Z,97430.44
2023-01-08T21:58:55.242Z,97423.72
2023-01-08T22:01:42.110Z,97402.50
2023-01-08T22:04:28.911Z,97413.69
2023-01-08T22:07:16.184Z,97398.84
2023-01-08T22:10:05.215Z,97406.63
2023-01-08T22:12:52.679Z,97413.69
2023-01-08T22:15:39.226Z,97409.38
2023-01-08T22:18:25.606Z,97396.63
2023-01-08T22:21:13.344Z,97403.53
2023-01-08T22:23:59.938Z,97399.41
2023-01-08T22:26:48.202Z,97399.38
2023-01-08T22:29:35.803Z,97393.13
2023-01-08T22:32:22.842Z,97395.88
2023-01-08T22:35:10.464Z,97383.00
2023-01-08T22:37:56.900Z,97386.38
2023-01-08T22:40:43.634Z,97393.97
2023-01-08T22:43:29.948Z,97380.25
2023-01-08T22:46:16.652Z,97386.41
2023-01-08T22:49:04.092Z,97382.25
2023-01-08T22:51:50.338Z,97379.63
2023-01-08T22:54:38.006Z,97386.50
2023-01-08T22:57:24.375Z,97381.41
2023-01-08T23:00:11.856Z,97377.94
2023-01-08T23:02:58.563Z,97376.94
2023-01-08T23:05:45.264Z,97383.84
2023-01-08T23:08:31.910Z,97376.78
2023-01-08T23:11:20.489Z,97381.84
2023-01-08T23:14:07.184Z,97387.84
2023-01-08T23:16:53.617Z,97384.06
2023-01-08T23:19:41.932Z,97379.00
2023-01-08T23:22:32.202Z,97396.38
2023-01-08T23:25:24.567Z,97385.19
2023-01-08T23:28:10.859Z,97395.56
2023-01-08T23:30:57.180Z,97396.56
2023-01-08T23:33:43.620Z,97401.81
2023-01-08T23:36:30.181Z,97393.16
2023-01-08T23:39:16.928Z,97398.19
2023-01-08T23:42:03.495Z,97391.19
2023-01-08T23:44:49.917Z,97381.97
2023-01-08T23:47:36.540Z,97380.97
2023-01-08T23:50:22.740Z,97379.16
2023-01-08T23:53:09.527Z,97372.06
2023-01-08T23:55:56.195Z,97379.84
2023-01-08T23:58:43.870Z,97364.72
